Terminal Aerodrome Forecast
Issued by NWS

Home | Current Version | Previous Version | Text Only | Print | Product List | Glossary On
Versions: 1 2 3 4 5 6 7 8 9 10 11 12 13 14 15 16 17 18 19
000
FTAK31 PAJN 190143 AAA
TAFAJN
TAF AMD
PAJN 190143Z 1902/1924 VRB03KT 5SM -SHRASN FEW005 BKN015 OVC040
      WS020/12030KT
     FM190400 12010KT 6SM -RA BKN025 OVC035 WS020/15035KT
     FM191900 VRB04KT P6SM VCSH SCT025 BKN035 OVC050=

USA.gov is the U.S. government's official web portal to all federal, state and local government web resources and services.